createdAt,value
2017-03-11T00:00:07.265Z,5.75
2017-03-11T00:01:18.717Z,5.63
2017-03-11T00:02:30.194Z,5.67
2017-03-11T00:03:41.630Z,5.62
2017-03-11T00:04:53.260Z,5.51
2017-03-11T00:06:04.711Z,5.54
2017-03-11T00:07:16.152Z,5.6
2017-03-11T00:08:27.818Z,5.6
2017-03-11T00:09:39.254Z,5.46
2017-03-11T00:10:50.751Z,5.46
2017-03-11T00:12:02.198Z,5.44
2017-03-11T00:13:13.658Z,5.37
2017-03-11T00:14:25.133Z,5.49
2017-03-11T00:15:36.788Z,5.45
2017-03-11T00:16:48.238Z,5.46
2017-03-11T00:17:59.703Z,5.45
2017-03-11T00:19:11.347Z,5.45
2017-03-11T00:20:22.790Z,5.45
2017-03-11T00:21:34.217Z,5.41
2017-03-11T00:22:45.656Z,5.42
2017-03-11T00:23:57.131Z,5.41
2017-03-11T00:25:08.572Z,5.41
2017-03-11T00:26:20.021Z,5.39
2017-03-11T00:27:31.453Z,5.39
2017-03-11T00:28:42.898Z,5.42
2017-03-11T00:29:54.357Z,5.37
2017-03-11T00:31:05.983Z,5.37
2017-03-11T00:32:17.473Z,5.37
2017-03-11T00:33:28.922Z,5.41
2017-03-11T00:34:40.366Z,5.36
2017-03-11T00:35:51.808Z,5.37
2017-03-11T00:37:03.288Z,5.36
2017-03-11T00:38:14.953Z,5.3
2017-03-11T00:39:26.389Z,5.31
2017-03-11T00:40:37.849Z,5.31
2017-03-11T00:41:49.504Z,5.34
2017-03-11T00:43:00.938Z,5.34
2017-03-11T00:44:12.370Z,5.39
2017-03-11T00:45:23.805Z,5.36
2017-03-11T00:46:35.262Z,5.42
2017-03-11T00:47:47.172Z,5.42
2017-03-11T00:48:58.606Z,5.41
2017-03-11T00:50:10.042Z,5.37
2017-03-11T00:51:21.486Z,5.36
2017-03-11T00:52:32.932Z,5.41
2017-03-11T00:53:44.575Z,5.42
2017-03-11T00:54:56.013Z,5.52
2017-03-11T00:56:07.461Z,5.46
2017-03-11T00:57:18.913Z,5.51
2017-03-11T00:58:30.573Z,5.51
2017-03-11T00:59:42.005Z,5.55
2017-03-11T01:00:53.480Z,5.51
2017-03-11T01:02:04.924Z,5.57
2017-03-11T01:03:16.392Z,5.62
2017-03-11T01:04:28.240Z,5.55
2017-03-11T01:05:39.669Z,5.51
2017-03-11T01:06:51.117Z,5.48
2017-03-11T01:08:02.579Z,5.55
2017-03-11T01:09:14.022Z,5.45
2017-03-11T01:10:25.488Z,5.45
2017-03-11T01:11:37.124Z,5.59
2017-03-11T01:12:48.603Z,5.49
2017-03-11T01:14:00.034Z,5.48
2017-03-11T01:15:11.487Z,5.54
2017-03-11T01:16:23.129Z,5.46
2017-03-11T01:17:34.795Z,5.51
2017-03-11T01:18:46.442Z,5.41
2017-03-11T01:19:57.870Z,5.46
2017-03-11T01:21:09.341Z,5.49
2017-03-11T01:22:20.777Z,5.49
2017-03-11T01:23:32.211Z,5.54
2017-03-11T01:24:43.647Z,5.42
2017-03-11T01:25:55.086Z,5.54
2017-03-11T01:27:06.717Z,5.44
2017-03-11T01:28:18.157Z,5.46
2017-03-11T01:29:29.800Z,5.39
2017-03-11T01:30:41.237Z,5.46
2017-03-11T01:31:52.678Z,5.42
2017-03-11T01:33:04.143Z,5.44
2017-03-11T01:34:15.647Z,5.45
2017-03-11T01:35:27.088Z,5.48
2017-03-11T01:36:38.543Z,5.46
2017-03-11T01:37:49.983Z,5.45
2017-03-11T01:39:01.417Z,5.44
2017-03-11T01:40:12.873Z,5.41
2017-03-11T01:41:24.312Z,5.41
2017-03-11T01:42:35.784Z,5.44
2017-03-11T01:43:47.235Z,5.39
2017-03-11T01:44:58.948Z,5.41
2017-03-11T01:46:10.407Z,5.39
2017-03-11T01:47:21.848Z,5.49
2017-03-11T01:48:33.295Z,5.48
2017-03-11T01:49:44.932Z,5.46
2017-03-11T01:50:56.381Z,5.41
2017-03-11T01:52:08.032Z,5.39
2017-03-11T01:53:19.472Z,5.44
2017-03-11T01:54:30.918Z,5.41
2017-03-11T01:55:42.655Z,5.42
2017-03-11T01:56:54.091Z,5.39
2017-03-11T01:58:05.546Z,5.44
2017-03-11T01:59:17.016Z,5.45
2017-03-11T02:00:28.477Z,5.39
2017-03-11T02:01:39.913Z,5.41
2017-03-11T02:02:51.362Z,5.48
2017-03-11T02:04:03.017Z,5.42
2017-03-11T02:05:14.658Z,5.42
2017-03-11T02:06:26.090Z,5.48
2017-03-11T02:07:37.519Z,5.55
2017-03-11T02:08:48.970Z,5.48
2017-03-11T02:10:00.397Z,5.55
2017-03-11T02:11:11.836Z,5.46
2017-03-11T02:12:23.310Z,5.55
2017-03-11T02:13:34.744Z,5.55
2017-03-11T02:14:46.200Z,5.52
2017-03-11T02:15:57.646Z,5.51
2017-03-11T02:17:09.094Z,5.55
2017-03-11T02:18:20.533Z,5.54
2017-03-11T02:19:32.186Z,5.51
2017-03-11T02:20:43.639Z,5.51
2017-03-11T02:21:55.141Z,5.54
2017-03-11T02:23:06.579Z,5.45
2017-03-11T02:24:18.011Z,5.54
2017-03-11T02:25:29.449Z,5.52
2017-03-11T02:26:40.903Z,5.57
2017-03-11T02:27:52.338Z,5.52
2017-03-11T02:29:03.977Z,5.6
2017-03-11T02:30:15.456Z,5.55
2017-03-11T02:31:26.919Z,5.51
2017-03-11T02:32:38.375Z,5.54
2017-03-11T02:33:49.820Z,5.55
2017-03-11T02:35:01.252Z,5.49
2017-03-11T02:36:12.718Z,5.51
2017-03-11T02:37:24.353Z,5.59
2017-03-11T02:38:35.790Z,5.52
2017-03-11T02:39:47.221Z,5.42
2017-03-11T02:40:58.878Z,5.49
2017-03-11T02:42:10.322Z,5.54
2017-03-11T02:43:21.749Z,5.55
2017-03-11T02:44:33.202Z,5.51
2017-03-11T02:45:44.652Z,5.55
2017-03-11T02:46:56.094Z,5.7
2017-03-11T02:48:07.541Z,5.62
2017-03-11T02:49:18.986Z,5.66
2017-03-11T02:50:30.431Z,5.64
2017-03-11T02:51:41.879Z,5.6
2017-03-11T02:52:53.329Z,5.59
2017-03-11T02:54:04.766Z,5.6
2017-03-11T02:55:16.197Z,5.57
2017-03-11T02:56:27.621Z,5.54
2017-03-11T02:57:39.260Z,5.49
2017-03-11T02:58:50.704Z,5.6
2017-03-11T03:00:02.159Z,5.62
2017-03-11T03:01:13.792Z,5.54
2017-03-11T03:02:25.427Z,5.55
2017-03-11T03:03:36.886Z,5.57
2017-03-11T03:04:48.324Z,5.51
2017-03-11T03:05:59.781Z,5.57
2017-03-11T03:07:11.224Z,5.63
2017-03-11T03:08:22.931Z,5.55
2017-03-11T03:09:34.565Z,5.62
2017-03-11T03:10:46.002Z,5.49
2017-03-11T03:11:57.442Z,5.57
2017-03-11T03:13:08.867Z,5.52
2017-03-11T03:14:20.330Z,5.59
2017-03-11T03:15:32.015Z,5.59
2017-03-11T03:16:43.446Z,5.57
2017-03-11T03:17:54.875Z,5.62
2017-03-11T03:19:06.323Z,5.62
2017-03-11T03:20:17.748Z,5.59
2017-03-11T03:21:29.175Z,5.55
2017-03-11T03:22:40.620Z,5.54
2017-03-11T03:23:52.304Z,5.52
2017-03-11T03:25:03.728Z,5.59
2017-03-11T03:26:15.361Z,5.57
2017-03-11T03:27:26.794Z,5.59
2017-03-11T03:28:38.217Z,5.63
2017-03-11T03:29:49.652Z,5.6
2017-03-11T03:31:01.091Z,5.57
2017-03-11T03:32:12.756Z,5.6
2017-03-11T03:33:24.209Z,5.59
2017-03-11T03:34:35.911Z,5.57
2017-03-11T03:35:47.950Z,5.54
2017-03-11T03:36:59.614Z,5.57
2017-03-11T03:38:11.250Z,5.64
2017-03-11T03:39:22.697Z,5.55
2017-03-11T03:40:34.132Z,5.55
2017-03-11T03:41:45.588Z,5.66
2017-03-11T03:42:57.035Z,5.62
2017-03-11T03:44:08.467Z,5.62
2017-03-11T03:45:20.118Z,5.6
2017-03-11T03:46:31.562Z,5.72
2017-03-11T03:47:43.035Z,5.67
2017-03-11T03:48:54.505Z,5.72
2017-03-11T03:50:05.990Z,5.7
2017-03-11T03:51:17.686Z,5.6
2017-03-11T03:52:29.344Z,5.72
2017-03-11T03:53:40.797Z,5.72
2017-03-11T03:54:52.252Z,5.69
2017-03-11T03:56:03.694Z,5.7
2017-03-11T03:57:15.122Z,5.7
2017-03-11T03:58:26.580Z,5.73
2017-03-11T03:59:38.222Z,5.7
2017-03-11T04:00:49.735Z,5.69
2017-03-11T04:02:01.170Z,5.72
2017-03-11T04:03:12.613Z,5.67
2017-03-11T04:04:24.058Z,5.67
2017-03-11T04:05:35.494Z,5.67
2017-03-11T04:06:47.152Z,5.67
2017-03-11T04:07:58.585Z,5.78
2017-03-11T04:09:10.049Z,5.72
2017-03-11T04:10:21.565Z,5.67
2017-03-11T04:11:33.004Z,5.66
2017-03-11T04:12:44.444Z,5.69
2017-03-11T04:13:55.882Z,5.7
2017-03-11T04:15:07.365Z,5.62
2017-03-11T04:16:18.808Z,5.69
2017-03-11T04:17:30.233Z,5.57
2017-03-11T04:18:41.696Z,5.59
2017-03-11T04:19:53.539Z,5.77
2017-03-11T04:21:04.995Z,5.7
2017-03-11T04:22:16.449Z,5.54
2017-03-11T04:23:27.873Z,5.6
2017-03-11T04:24:39.319Z,5.57
2017-03-11T04:25:50.773Z,5.62
2017-03-11T04:27:02.206Z,5.59
2017-03-11T04:28:13.637Z,5.54
2017-03-11T04:29:25.099Z,5.54
2017-03-11T04:30:36.539Z,5.51
2017-03-11T04:31:48.038Z,5.51
2017-03-11T04:32:59.677Z,5.52
2017-03-11T04:34:11.118Z,5.54
2017-03-11T04:35:22.956Z,5.54
2017-03-11T04:36:34.381Z,5.46
2017-03-11T04:37:46.031Z,5.48
2017-03-11T04:38:57.483Z,5.48
2017-03-11T04:40:09.113Z,5.41
2017-03-11T04:41:20.557Z,5.45
2017-03-11T04:42:31.987Z,5.42
2017-03-11T04:43:43.460Z,5.48
2017-03-11T04:44:54.893Z,5.41
2017-03-11T04:46:06.533Z,5.51
2017-03-11T04:47:18.057Z,5.46
2017-03-11T04:48:29.916Z,5.52
2017-03-11T04:49:41.399Z,5.41
2017-03-11T04:50:53.030Z,5.54
2017-03-11T04:52:04.676Z,5.41
2017-03-11T04:53:16.114Z,5.46
2017-03-11T04:54:27.758Z,5.45
2017-03-11T04:55:39.207Z,5.49
2017-03-11T04:56:50.641Z,5.51
2017-03-11T04:58:02.268Z,5.48
2017-03-11T04:59:13.921Z,5.54
2017-03-11T05:00:25.553Z,5.45
2017-03-11T05:01:37.008Z,5.34
2017-03-11T05:02:48.910Z,5.39
2017-03-11T05:04:00.343Z,5.44
2017-03-11T05:05:11.776Z,5.44
2017-03-11T05:06:23.218Z,5.36
2017-03-11T05:07:34.695Z,5.46
2017-03-11T05:08:46.128Z,5.45
2017-03-11T05:09:57.775Z,5.42
2017-03-11T05:11:09.423Z,5.37
2017-03-11T05:12:20.850Z,5.46
2017-03-11T05:13:32.334Z,5.34
2017-03-11T05:14:43.759Z,5.28
2017-03-11T05:15:55.224Z,5.3
2017-03-11T05:17:06.670Z,5.28
2017-03-11T05:18:18.104Z,5.23
2017-03-11T05:19:29.735Z,5.16
2017-03-11T05:20:41.390Z,5.16
2017-03-11T05:21:52.831Z,5.1
2017-03-11T05:23:04.266Z,5.2
2017-03-11T05:24:15.701Z,5.1
2017-03-11T05:25:27.385Z,5.1
2017-03-11T05:26:38.837Z,5.12
2017-03-11T05:27:50.494Z,5.1
2017-03-11T05:29:01.986Z,5.12
2017-03-11T05:30:13.406Z,5
2017-03-11T05:31:24.844Z,5
2017-03-11T05:32:36.278Z,5
2017-03-11T05:33:47.721Z,5.05
2017-03-11T05:34:59.213Z,4.87
2017-03-11T05:36:10.657Z,4.87
2017-03-11T05:37:22.137Z,4.94
2017-03-11T05:38:33.787Z,4.97
2017-03-11T05:39:45.240Z,4.9
2017-03-11T05:40:56.692Z,4.87
2017-03-11T05:42:08.150Z,4.83
2017-03-11T05:43:19.596Z,4.84
2017-03-11T05:44:31.032Z,4.78
2017-03-11T05:45:42.500Z,4.87
2017-03-11T05:46:53.947Z,4.76
2017-03-11T05:48:05.400Z,4.72
2017-03-11T05:49:16.831Z,4.65
2017-03-11T05:50:28.281Z,4.69
2017-03-11T05:51:39.917Z,4.65
2017-03-11T05:52:51.361Z,4.61
2017-03-11T05:54:02.991Z,4.5
2017-03-11T05:55:14.638Z,4.48
2017-03-11T05:56:26.068Z,4.56
2017-03-11T05:57:37.522Z,4.57
2017-03-11T05:58:48.949Z,4.56
2017-03-11T06:00:00.390Z,4.56
2017-03-11T06:01:11.851Z,4.53
2017-03-11T06:02:23.291Z,4.57
2017-03-11T06:03:34.725Z,4.53
2017-03-11T06:04:46.181Z,4.54
2017-03-11T06:05:57.625Z,4.5
2017-03-11T06:07:09.075Z,4.48
2017-03-11T06:08:20.720Z,4.51
2017-03-11T06:09:32.158Z,4.48
2017-03-11T06:10:43.602Z,4.6
2017-03-11T06:11:55.229Z,4.53
2017-03-11T06:13:06.661Z,4.5
2017-03-11T06:14:18.519Z,4.53
2017-03-11T06:15:29.960Z,4.5
2017-03-11T06:16:41.613Z,4.46
2017-03-11T06:17:53.048Z,4.42
2017-03-11T06:19:04.510Z,4.48
2017-03-11T06:20:15.938Z,4.53
2017-03-11T06:21:27.576Z,4.48
2017-03-11T06:22:39.057Z,4.48
2017-03-11T06:23:50.523Z,4.46
2017-03-11T06:25:01.992Z,4.53
2017-03-11T06:26:13.429Z,4.48
2017-03-11T06:27:24.871Z,4.53
2017-03-11T06:28:36.313Z,4.56
2017-03-11T06:29:47.952Z,4.54
2017-03-11T06:30:59.589Z,4.53
2017-03-11T06:32:11.428Z,4.53
2017-03-11T06:33:22.884Z,4.58
2017-03-11T06:34:34.515Z,4.58
2017-03-11T06:35:46.144Z,4.6
2017-03-11T06:36:57.817Z,4.64
2017-03-11T06:38:09.562Z,4.74
2017-03-11T06:39:20.994Z,4.72
2017-03-11T06:40:32.656Z,4.85
2017-03-11T06:41:44.097Z,4.78
2017-03-11T06:42:55.741Z,4.88
2017-03-11T06:44:07.379Z,4.85
2017-03-11T06:45:18.820Z,4.95
2017-03-11T06:46:30.468Z,4.94
2017-03-11T06:47:41.903Z,4.91
2017-03-11T06:48:53.556Z,4.95
2017-03-11T06:50:05.214Z,4.91
2017-03-11T06:51:16.678Z,4.98
2017-03-11T06:52:28.122Z,4.87
2017-03-11T06:53:39.553Z,4.95
2017-03-11T06:54:51.218Z,4.87
2017-03-11T06:56:02.670Z,4.97
2017-03-11T06:57:14.125Z,5.02
2017-03-11T06:58:25.572Z,4.97
2017-03-11T06:59:37.213Z,5.18
2017-03-11T07:00:48.854Z,5.28
2017-03-11T07:02:00.511Z,5.3
2017-03-11T07:03:12.168Z,5.44
2017-03-11T07:04:23.608Z,5.48
2017-03-11T07:05:35.259Z,5.59
2017-03-11T07:06:46.700Z,5.72
2017-03-11T07:07:58.127Z,5.73
2017-03-11T07:09:09.574Z,5.95
2017-03-11T07:10:21.010Z,5.98
2017-03-11T07:11:32.450Z,6.09
2017-03-11T07:12:44.107Z,6.17
2017-03-11T07:13:55.556Z,6.24
2017-03-11T07:15:07.014Z,6.34
2017-03-11T07:16:18.473Z,6.51
2017-03-11T07:17:29.959Z,6.72
2017-03-11T07:18:41.395Z,7.15
2017-03-11T07:19:53.330Z,7.58
2017-03-11T07:21:04.973Z,7.92
2017-03-11T07:22:16.610Z,8.13
2017-03-11T07:23:28.062Z,8.22
2017-03-11T07:24:39.690Z,8.4
2017-03-11T07:25:51.141Z,8.44
2017-03-11T07:27:02.602Z,8.52
2017-03-11T07:28:14.080Z,8.77
2017-03-11T07:29:25.540Z,8.98
2017-03-11T07:30:37.041Z,9.05
2017-03-11T07:31:48.488Z,9.11
2017-03-11T07:32:59.919Z,9.14
2017-03-11T07:34:11.361Z,9.14
2017-03-11T07:35:22.832Z,9.17
2017-03-11T07:36:34.279Z,9.23
2017-03-11T07:37:45.710Z,9.53
2017-03-11T07:38:57.150Z,9.74
2017-03-11T07:40:08.615Z,9.81
2017-03-11T07:41:20.260Z,9.8
2017-03-11T07:42:31.956Z,9.64
2017-03-11T07:43:43.615Z,9.7
2017-03-11T07:44:55.058Z,9.85
2017-03-11T07:46:06.703Z,9.99
2017-03-11T07:47:18.161Z,9.93
2017-03-11T07:48:29.610Z,9.84
2017-03-11T07:49:41.249Z,9.72
2017-03-11T07:50:52.744Z,9.85
2017-03-11T07:52:04.448Z,10.08
2017-03-11T07:53:15.886Z,10.15
2017-03-11T07:54:27.541Z,9.99
2017-03-11T07:55:39.194Z,9.96
2017-03-11T07:56:51.039Z,10.03
2017-03-11T07:58:02.680Z,10.03
2017-03-11T07:59:14.117Z,10.26
2017-03-11T08:00:25.566Z,10.25
2017-03-11T08:01:37.035Z,10.39
2017-03-11T08:02:48.815Z,10.57
2017-03-11T08:04:00.258Z,10.76
2017-03-11T08:05:11.920Z,10.83
2017-03-11T08:06:23.572Z,10.92
2017-03-11T08:07:35.018Z,11.06
2017-03-11T08:08:46.483Z,11.05
2017-03-11T08:09:57.945Z,11.33
2017-03-11T08:11:09.423Z,11.64
2017-03-11T08:12:20.881Z,11.81
2017-03-11T08:13:32.342Z,11.86
2017-03-11T08:14:43.996Z,12
2017-03-11T08:15:55.658Z,12.11
2017-03-11T08:17:07.104Z,12.2
2017-03-11T08:18:18.562Z,12.41
2017-03-11T08:19:30.242Z,12.37
2017-03-11T08:20:41.684Z,12.55
2017-03-11T08:21:53.155Z,12.8
2017-03-11T08:23:04.611Z,13.01
2017-03-11T08:24:16.072Z,13.32
2017-03-11T08:25:27.760Z,13.44
2017-03-11T08:26:39.223Z,13.87
2017-03-11T08:27:50.689Z,14.19
2017-03-11T08:29:02.375Z,14.46
2017-03-11T08:30:14.024Z,14.74
2017-03-11T08:31:25.489Z,14.95
2017-03-11T08:32:36.963Z,15.13
2017-03-11T08:33:48.483Z,15.2
2017-03-11T08:35:00.151Z,15.51
2017-03-11T08:36:11.628Z,15.84
2017-03-11T08:37:23.296Z,15.81
2017-03-11T08:38:34.749Z,15.89
2017-03-11T08:39:46.207Z,15.96
2017-03-11T08:40:57.888Z,16.25
2017-03-11T08:42:09.369Z,16.36
2017-03-11T08:43:21.048Z,16.34
2017-03-11T08:44:32.728Z,16.3
2017-03-11T08:45:44.204Z,16.17
2017-03-11T08:46:55.675Z,15.95
2017-03-11T08:48:07.376Z,15.96
2017-03-11T08:49:18.847Z,15.96
2017-03-11T08:50:30.343Z,16.07
2017-03-11T08:51:41.830Z,16.17
2017-03-11T08:52:53.315Z,16.33
2017-03-11T08:54:04.982Z,16.51
2017-03-11T08:55:16.659Z,16.44
2017-03-11T08:56:28.151Z,16.4
2017-03-11T08:57:39.634Z,16.55
2017-03-11T08:58:51.112Z,16.65
2017-03-11T09:00:02.641Z,16.9
2017-03-11T09:01:14.114Z,17.02
2017-03-11T09:02:25.776Z,16.87
2017-03-11T09:03:37.435Z,16.9
2017-03-11T09:04:48.898Z,17.02
2017-03-11T09:06:00.351Z,17.12
2017-03-11T09:07:11.853Z,16.99
2017-03-11T09:08:23.329Z,16.88
2017-03-11T09:09:34.802Z,16.81
2017-03-11T09:10:46.255Z,16.84
2017-03-11T09:11:57.716Z,16.94
2017-03-11T09:13:09.197Z,17.17
2017-03-11T09:14:20.659Z,17.24
2017-03-11T09:15:32.159Z,17.45
2017-03-11T09:16:43.620Z,17.74
2017-03-11T09:17:55.088Z,17.99
2017-03-11T09:19:06.578Z,18.03
2017-03-11T09:20:18.060Z,18.14
2017-03-11T09:21:29.732Z,18.11
2017-03-11T09:22:41.394Z,18.13
2017-03-11T09:23:52.862Z,18.08
2017-03-11T09:25:04.357Z,17.9
2017-03-11T09:26:16.084Z,17.99
2017-03-11T09:27:27.569Z,18.03
2017-03-11T09:28:39.032Z,17.99
2017-03-11T09:29:50.902Z,18.17
2017-03-11T09:31:02.555Z,18.32
2017-03-11T09:32:14.038Z,18.23
2017-03-11T09:33:25.531Z,18.16
2017-03-11T09:34:36.996Z,18.26
2017-03-11T09:35:48.477Z,18.49
2017-03-11T09:37:00.182Z,18.47
2017-03-11T09:38:11.631Z,18.19
2017-03-11T09:39:23.107Z,17.99
2017-03-11T09:40:34.613Z,17.86
2017-03-11T09:41:46.118Z,18.03
2017-03-11T09:42:57.582Z,18.44
2017-03-11T09:44:09.029Z,18.63
2017-03-11T09:45:20.491Z,18.82
2017-03-11T09:46:31.956Z,18.69
2017-03-11T09:47:43.628Z,18.66
2017-03-11T09:48:55.105Z,18.56
2017-03-11T09:50:06.754Z,18.78
2017-03-11T09:51:18.243Z,19.15
2017-03-11T09:52:29.714Z,19.24
2017-03-11T09:53:41.474Z,19.28
2017-03-11T09:54:52.927Z,19.15
2017-03-11T09:56:04.388Z,19.1
2017-03-11T09:57:15.863Z,19.09
2017-03-11T09:58:27.338Z,19.12
2017-03-11T09:59:39.219Z,18.97
2017-03-11T10:00:50.904Z,18.84
2017-03-11T10:02:02.389Z,18.9
2017-03-11T10:03:14.366Z,19.09
2017-03-11T10:04:26.041Z,19.09
2017-03-11T10:05:37.523Z,19.15
2017-03-11T10:06:49.221Z,19.31
2017-03-11T10:08:00.897Z,19.46
2017-03-11T10:09:12.375Z,19.65
2017-03-11T10:10:23.870Z,19.65
2017-03-11T10:11:35.748Z,19.34
2017-03-11T10:12:47.197Z,19.19
2017-03-11T10:13:58.729Z,19.31
2017-03-11T10:15:10.204Z,19.6
2017-03-11T10:16:21.686Z,19.56
2017-03-11T10:17:33.143Z,19.3
2017-03-11T10:18:44.599Z,19.46
2017-03-11T10:19:56.095Z,19.42
2017-03-11T10:21:07.573Z,19.2
2017-03-11T10:22:19.075Z,19.47
2017-03-11T10:23:30.723Z,19.46
2017-03-11T10:24:42.196Z,19.67
2017-03-11T10:25:53.669Z,19.38
2017-03-11T10:27:05.132Z,19.19
2017-03-11T10:28:16.606Z,19.45
2017-03-11T10:29:28.098Z,19.8
2017-03-11T10:30:39.567Z,19.4
2017-03-11T10:31:51.034Z,19.1
2017-03-11T10:33:02.494Z,19.17
2017-03-11T10:34:13.973Z,18.96
2017-03-11T10:35:25.498Z,18.9
2017-03-11T10:36:37.003Z,18.75
2017-03-11T10:37:48.486Z,18.49
2017-03-11T10:38:59.946Z,18.6
2017-03-11T10:40:11.935Z,18.87
2017-03-11T10:41:23.395Z,19.17
2017-03-11T10:42:35.053Z,19.57
2017-03-11T10:43:46.544Z,19.83
2017-03-11T10:44:58.015Z,19.95
2017-03-11T10:46:09.477Z,20.2
2017-03-11T10:47:21.147Z,20.22
2017-03-11T10:48:32.596Z,20.2
2017-03-11T10:49:44.069Z,20.27
2017-03-11T10:50:55.543Z,19.89
2017-03-11T10:52:07.193Z,19.82
2017-03-11T10:53:18.863Z,19.98
2017-03-11T10:54:30.311Z,20
2017-03-11T10:55:41.783Z,19.97
2017-03-11T10:56:53.266Z,19.82
2017-03-11T10:58:04.733Z,20.01
2017-03-11T10:59:16.193Z,19.92
2017-03-11T11:00:27.679Z,20.08
2017-03-11T11:01:39.164Z,20.08
2017-03-11T11:02:50.642Z,19.93
2017-03-11T11:04:02.112Z,19.89
2017-03-11T11:05:13.572Z,19.98
2017-03-11T11:06:25.039Z,19.98
2017-03-11T11:07:36.504Z,19.79
2017-03-11T11:08:47.983Z,19.72
2017-03-11T11:09:59.445Z,19.56
2017-03-11T11:11:10.952Z,19.42
2017-03-11T11:12:22.419Z,19.34
2017-03-11T11:13:33.889Z,19.4
2017-03-11T11:14:45.341Z,19.46
2017-03-11T11:15:57.018Z,19.47
2017-03-11T11:17:08.491Z,19.5
2017-03-11T11:18:19.958Z,19.57
2017-03-11T11:19:31.433Z,19.68
2017-03-11T11:20:43.305Z,19.71
2017-03-11T11:21:55.010Z,19.74
2017-03-11T11:23:06.674Z,19.8
2017-03-11T11:24:18.132Z,19.75
2017-03-11T11:25:29.616Z,19.67
2017-03-11T11:26:41.126Z,19.67
2017-03-11T11:27:52.580Z,19.79
2017-03-11T11:29:04.263Z,19.82
2017-03-11T11:30:15.741Z,20.01
2017-03-11T11:31:27.430Z,19.98
2017-03-11T11:32:39.068Z,20.04
2017-03-11T11:33:50.519Z,20.26
2017-03-11T11:35:02.205Z,20.38
2017-03-11T11:36:13.676Z,20.38
2017-03-11T11:37:25.194Z,20.3
2017-03-11T11:38:36.860Z,20.22
2017-03-11T11:39:48.309Z,20.11
2017-03-11T11:40:59.774Z,19.93
2017-03-11T11:42:11.227Z,19.92
2017-03-11T11:43:22.694Z,19.97
2017-03-11T11:44:34.153Z,20.22
2017-03-11T11:45:45.609Z,20.46
2017-03-11T11:46:57.081Z,20.38
2017-03-11T11:48:08.595Z,20.42
2017-03-11T11:49:20.062Z,20.35
2017-03-11T11:50:31.534Z,20.4
2017-03-11T11:51:42.990Z,20.34
2017-03-11T11:52:54.437Z,20.23
2017-03-11T11:54:05.923Z,19.95
2017-03-11T11:55:17.401Z,19.93
2017-03-11T11:56:28.869Z,20
2017-03-11T11:57:40.341Z,19.97
2017-03-11T11:58:51.857Z,19.92
2017-03-11T12:00:03.340Z,19.86
2017-03-11T12:01:14.797Z,19.89
2017-03-11T12:02:26.251Z,19.7
2017-03-11T12:03:37.702Z,19.78
2017-03-11T12:04:49.172Z,19.87
2017-03-11T12:06:00.624Z,19.61
2017-03-11T12:07:12.110Z,19.31
2017-03-11T12:08:23.592Z,19.12
2017-03-11T12:09:35.084Z,18.97
2017-03-11T12:10:46.755Z,18.72
2017-03-11T12:11:58.226Z,18.6
2017-03-11T12:13:09.892Z,18.72
2017-03-11T12:14:21.560Z,18.96
2017-03-11T12:15:33.035Z,19.1
2017-03-11T12:16:44.506Z,19.1
2017-03-11T12:17:55.977Z,18.96
2017-03-11T12:19:07.450Z,18.87
2017-03-11T12:20:18.973Z,18.78
2017-03-11T12:21:30.435Z,18.76
2017-03-11T12:22:41.889Z,18.84
2017-03-11T12:23:53.425Z,18.84
2017-03-11T12:25:04.891Z,18.96
2017-03-11T12:26:16.358Z,18.91
2017-03-11T12:27:27.803Z,18.93
2017-03-11T12:28:39.265Z,18.82
2017-03-11T12:29:50.949Z,18.74
2017-03-11T12:31:02.464Z,18.86
2017-03-11T12:32:13.914Z,18.74
2017-03-11T12:33:25.385Z,18.76
2017-03-11T12:34:36.849Z,18.84
2017-03-11T12:35:48.338Z,18.86
2017-03-11T12:36:59.799Z,18.81
2017-03-11T12:38:11.264Z,18.57
2017-03-11T12:39:22.715Z,18.5
2017-03-11T12:40:34.170Z,18.44
2017-03-11T12:41:45.885Z,18.45
2017-03-11T12:42:57.569Z,18.27
2017-03-11T12:44:09.226Z,18.05
2017-03-11T12:45:20.695Z,18.11
2017-03-11T12:46:32.486Z,17.86
2017-03-11T12:47:43.942Z,17.71
2017-03-11T12:48:55.404Z,17.49
2017-03-11T12:50:06.858Z,17.39
2017-03-11T12:51:18.300Z,17.5
2017-03-11T12:52:29.953Z,17.49
2017-03-11T12:53:41.426Z,17.6
2017-03-11T12:54:52.873Z,17.49
2017-03-11T12:56:04.342Z,17.43
2017-03-11T12:57:15.778Z,17.3
2017-03-11T12:58:27.248Z,17.31
2017-03-11T12:59:38.898Z,17.4
2017-03-11T13:00:50.566Z,17.5
2017-03-11T13:02:02.065Z,17.46
2017-03-11T13:03:13.531Z,17.57
2017-03-11T13:04:25.208Z,17.57
2017-03-11T13:05:36.646Z,17.66
2017-03-11T13:06:48.141Z,17.73
2017-03-11T13:07:59.588Z,17.73
2017-03-11T13:09:11.070Z,17.68
2017-03-11T13:10:22.514Z,17.73
2017-03-11T13:11:33.971Z,17.5
2017-03-11T13:12:45.640Z,17.45
2017-03-11T13:13:57.278Z,17.24
2017-03-11T13:15:08.734Z,17.25
2017-03-11T13:16:20.194Z,16.95
2017-03-11T13:17:31.837Z,17.05
2017-03-11T13:18:43.805Z,17.07
2017-03-11T13:19:55.267Z,17.09
2017-03-11T13:21:06.942Z,17.06
2017-03-11T13:22:18.409Z,16.95
2017-03-11T13:23:29.871Z,17.07
2017-03-11T13:24:41.322Z,17.25
2017-03-11T13:25:52.777Z,17.39
2017-03-11T13:27:04.241Z,17.5
2017-03-11T13:28:16.126Z,17.52
2017-03-11T13:29:27.597Z,17.54
2017-03-11T13:30:39.252Z,17.46
2017-03-11T13:31:50.750Z,17.45
2017-03-11T13:33:02.212Z,17.35
2017-03-11T13:34:13.653Z,16.94
2017-03-11T13:35:25.110Z,16.65
2017-03-11T13:36:36.759Z,16.45
2017-03-11T13:37:48.228Z,16.39
2017-03-11T13:39:00.185Z,16.25
2017-03-11T13:40:11.631Z,16.22
2017-03-11T13:41:23.072Z,16.25
2017-03-11T13:42:34.727Z,16.18
2017-03-11T13:43:46.178Z,16.13
2017-03-11T13:44:57.622Z,16.17
2017-03-11T13:46:09.260Z,16.17
2017-03-11T13:47:20.953Z,16.22
2017-03-11T13:48:32.403Z,16.37
2017-03-11T13:49:44.263Z,16.37
2017-03-11T13:50:55.713Z,16.42
2017-03-11T13:52:07.163Z,16.16
2017-03-11T13:53:18.808Z,16.13
2017-03-11T13:54:30.522Z,16.13
2017-03-11T13:55:41.962Z,15.98
2017-03-11T13:56:53.430Z,15.89
2017-03-11T13:58:04.869Z,15.84
2017-03-11T13:59:16.311Z,15.84
2017-03-11T14:00:27.763Z,15.68
2017-03-11T14:01:39.223Z,15.68
2017-03-11T14:02:50.911Z,15.7
2017-03-11T14:04:02.427Z,15.7
2017-03-11T14:05:13.910Z,15.7
2017-03-11T14:06:25.559Z,15.75
2017-03-11T14:07:37.032Z,15.81
2017-03-11T14:08:48.499Z,15.89
2017-03-11T14:09:59.955Z,15.88
2017-03-11T14:11:11.404Z,15.67
2017-03-11T14:12:23.465Z,15.62
2017-03-11T14:13:34.911Z,15.62
2017-03-11T14:14:46.380Z,15.52
2017-03-11T14:15:57.827Z,15.58
2017-03-11T14:17:09.284Z,15.68
2017-03-11T14:18:20.734Z,15.65
2017-03-11T14:19:32.189Z,15.56
2017-03-11T14:20:43.630Z,15.49
2017-03-11T14:21:55.084Z,15.44
2017-03-11T14:23:06.741Z,15.43
2017-03-11T14:24:18.184Z,15.37
2017-03-11T14:25:29.626Z,15.25
2017-03-11T14:26:41.131Z,15.16
2017-03-11T14:27:52.586Z,15.37
2017-03-11T14:29:04.454Z,15.16
2017-03-11T14:30:15.921Z,15.15
2017-03-11T14:31:27.577Z,15.08
2017-03-11T14:32:39.019Z,14.97
2017-03-11T14:33:50.464Z,14.95
2017-03-11T14:35:01.932Z,15.08
2017-03-11T14:36:13.427Z,15.08
2017-03-11T14:37:25.094Z,15.05
2017-03-11T14:38:36.738Z,15.12
2017-03-11T14:39:48.184Z,15.08
2017-03-11T14:40:59.647Z,15.19
2017-03-11T14:42:11.104Z,15.18
2017-03-11T14:43:22.549Z,15.19
2017-03-11T14:44:33.990Z,15.08
2017-03-11T14:45:45.452Z,15
2017-03-11T14:46:56.970Z,15.07
2017-03-11T14:48:08.406Z,15.19
2017-03-11T14:49:19.841Z,15.08
2017-03-11T14:50:31.288Z,15.15
2017-03-11T14:51:42.768Z,15.2
2017-03-11T14:52:54.228Z,15.19
2017-03-11T14:54:05.692Z,15.16
2017-03-11T14:55:17.136Z,15.16
2017-03-11T14:56:28.585Z,15.16
2017-03-11T14:57:40.042Z,15.18
2017-03-11T14:58:51.484Z,15.07
2017-03-11T15:00:02.970Z,15.04
2017-03-11T15:01:14.413Z,14.98
2017-03-11T15:02:26.065Z,14.98
2017-03-11T15:03:37.519Z,15.07
2017-03-11T15:04:49.207Z,14.98
2017-03-11T15:06:00.648Z,14.93
2017-03-11T15:07:12.308Z,14.85
2017-03-11T15:08:23.755Z,14.82
2017-03-11T15:09:35.418Z,14.71
2017-03-11T15:10:46.900Z,14.7
2017-03-11T15:11:58.358Z,14.66
2017-03-11T15:13:09.815Z,14.63
2017-03-11T15:14:21.290Z,14.74
2017-03-11T15:15:32.964Z,14.74
2017-03-11T15:16:44.428Z,14.82
2017-03-11T15:17:55.948Z,14.86
2017-03-11T15:19:07.407Z,14.89
2017-03-11T15:20:18.876Z,14.67
2017-03-11T15:21:30.334Z,14.63
2017-03-11T15:22:41.786Z,14.64
2017-03-11T15:23:53.253Z,14.64
2017-03-11T15:25:04.709Z,14.64
2017-03-11T15:26:16.384Z,14.7
2017-03-11T15:27:27.847Z,14.7
2017-03-11T15:28:39.715Z,14.6
2017-03-11T15:29:51.173Z,14.57
2017-03-11T15:31:02.824Z,14.53
2017-03-11T15:32:14.470Z,14.52
2017-03-11T15:33:25.921Z,14.42
2017-03-11T15:34:37.375Z,14.28
2017-03-11T15:35:48.825Z,14.38
2017-03-11T15:37:00.290Z,14.39
2017-03-11T15:38:11.976Z,14.41
2017-03-11T15:39:23.437Z,14.28